createdAt,value
2018-12-18T00:02:05.345Z,81.30
2018-12-18T00:04:32.789Z,81.60
2018-12-18T00:07:00.241Z,81.50
2018-12-18T00:09:27.787Z,81.80
2018-12-18T00:11:59.293Z,81.70
2018-12-18T00:14:24.719Z,81.50
2018-12-18T00:16:52.205Z,81.20
2018-12-18T00:19:19.661Z,81.20
2018-12-18T00:21:47.156Z,81.00
2018-12-18T00:24:15.874Z,80.60
2018-12-18T00:26:43.342Z,80.70
2018-12-18T00:29:10.780Z,80.70
2018-12-18T00:31:38.257Z,80.50
2018-12-18T00:34:05.700Z,80.40
2018-12-18T00:36:33.218Z,80.30
2018-12-18T00:39:00.716Z,80.50
2018-12-18T00:41:28.156Z,80.40
2018-12-18T00:43:55.615Z,80.10
2018-12-18T00:46:23.110Z,80.30
2018-12-18T00:48:50.557Z,80.10
2018-12-18T00:51:18.015Z,80.10
2018-12-18T00:53:45.745Z,80.10
2018-12-18T00:56:13.220Z,80.20
2018-12-18T00:58:40.671Z,80.00
2018-12-18T01:01:08.198Z,80.10
2018-12-18T01:03:35.652Z,80.00
2018-12-18T01:06:03.112Z,79.80
2018-12-18T01:08:30.700Z,79.70
2018-12-18T01:10:58.228Z,79.60
2018-12-18T01:13:25.708Z,80.70
2018-12-18T01:15:53.192Z,79.80
2018-12-18T01:18:20.671Z,79.70
2018-12-18T01:20:48.093Z,79.70
2018-12-18T01:23:15.555Z,79.70
2018-12-18T01:25:43.019Z,79.70
2018-12-18T01:28:10.484Z,79.70
2018-12-18T01:30:37.935Z,79.90
2018-12-18T01:33:05.396Z,79.70
2018-12-18T01:35:32.841Z,79.40
2018-12-18T01:38:00.299Z,80.40
2018-12-18T01:40:29.204Z,80.40
2018-12-18T01:42:56.815Z,79.70
2018-12-18T01:45:24.277Z,79.50
2018-12-18T01:47:51.708Z,79.80
2018-12-18T01:50:19.190Z,79.90
2018-12-18T01:52:46.620Z,79.90
2018-12-18T01:55:14.105Z,80.50
2018-12-18T01:57:41.525Z,79.90
2018-12-18T02:00:09.151Z,80.10
2018-12-18T02:02:36.871Z,80.10
2018-12-18T02:05:04.845Z,80.10
2018-12-18T02:07:32.353Z,80.10
2018-12-18T02:09:59.821Z,80.10
2018-12-18T02:12:27.261Z,80.30
2018-12-18T02:14:54.703Z,80.50
2018-12-18T02:17:22.176Z,80.40
2018-12-18T02:19:49.681Z,80.60
2018-12-18T02:22:17.124Z,80.30
2018-12-18T02:24:44.568Z,80.40
2018-12-18T02:27:12.032Z,80.30
2018-12-18T02:29:39.510Z,80.10
2018-12-18T02:32:06.980Z,80.00
2018-12-18T02:34:34.432Z,80.30
2018-12-18T02:37:01.893Z,80.00
2018-12-18T02:39:29.343Z,79.90
2018-12-18T02:41:56.790Z,79.70
2018-12-18T02:44:24.247Z,79.20
2018-12-18T02:46:51.768Z,80.90
2018-12-18T02:49:19.311Z,80.00
2018-12-18T02:51:46.769Z,80.00
2018-12-18T02:54:14.221Z,80.00
2018-12-18T02:56:41.774Z,80.10
2018-12-18T02:59:09.231Z,80.30
2018-12-18T03:01:36.833Z,80.30
2018-12-18T03:04:04.285Z,80.30
2018-12-18T03:06:31.850Z,80.50
2018-12-18T03:08:59.320Z,80.60
2018-12-18T03:11:26.780Z,80.60
2018-12-18T03:13:54.246Z,80.70
2018-12-18T03:16:21.687Z,80.80
2018-12-18T03:18:49.153Z,80.70
2018-12-18T03:21:16.612Z,81.40
2018-12-18T03:23:44.174Z,80.60
2018-12-18T03:26:11.676Z,80.50
2018-12-18T03:28:39.168Z,80.40
2018-12-18T03:31:06.630Z,80.40
2018-12-18T03:33:34.159Z,80.40
2018-12-18T03:36:01.612Z,80.60
2018-12-18T03:38:29.063Z,80.80
2018-12-18T03:40:56.892Z,80.80
2018-12-18T03:43:24.450Z,80.90
2018-12-18T03:45:53.090Z,80.90
2018-12-18T03:48:20.876Z,80.70
2018-12-18T03:50:48.323Z,80.90
2018-12-18T03:53:15.804Z,80.70
2018-12-18T03:55:43.267Z,80.70
2018-12-18T03:58:10.738Z,80.80
2018-12-18T04:00:38.184Z,80.60
2018-12-18T04:03:05.651Z,81.10
2018-12-18T04:05:33.114Z,81.00
2018-12-18T04:08:00.576Z,80.90
2018-12-18T04:10:28.045Z,80.80
2018-12-18T04:12:55.475Z,80.70
2018-12-18T04:15:22.933Z,80.80
2018-12-18T04:17:50.382Z,80.90
2018-12-18T04:20:17.842Z,80.80
2018-12-18T04:22:45.310Z,80.80
2018-12-18T04:25:12.837Z,81.10
2018-12-18T04:27:40.285Z,81.20
2018-12-18T04:30:07.917Z,81.30
2018-12-18T04:32:35.341Z,82.00
2018-12-18T04:35:02.904Z,81.60
2018-12-18T04:37:30.352Z,81.50
2018-12-18T04:39:57.813Z,81.50
2018-12-18T04:42:25.247Z,81.20
2018-12-18T04:44:52.728Z,81.10
2018-12-18T04:47:20.161Z,81.30
2018-12-18T04:49:47.624Z,81.00
2018-12-18T04:52:15.183Z,80.80
2018-12-18T04:54:42.732Z,81.00
2018-12-18T04:57:10.209Z,81.00
2018-12-18T04:59:37.632Z,81.00
2018-12-18T05:02:05.130Z,81.10
2018-12-18T05:04:32.665Z,81.00
2018-12-18T05:07:00.123Z,80.60
2018-12-18T05:09:27.581Z,80.50
2018-12-18T05:11:55.045Z,80.60
2018-12-18T05:14:22.511Z,80.60
2018-12-18T05:16:50.026Z,80.60
2018-12-18T05:19:17.460Z,80.70
2018-12-18T05:21:44.933Z,81.00
2018-12-18T05:24:12.376Z,80.80
2018-12-18T05:26:39.871Z,81.00
2018-12-18T05:29:07.439Z,82.00
2018-12-18T05:31:34.910Z,81.00
2018-12-18T05:34:02.361Z,81.10
2018-12-18T05:36:29.850Z,81.10
2018-12-18T05:38:57.315Z,80.80
2018-12-18T05:41:24.798Z,80.60
2018-12-18T05:43:52.271Z,80.90
2018-12-18T05:46:19.722Z,80.90
2018-12-18T05:48:47.226Z,80.70
2018-12-18T05:51:14.670Z,80.70
2018-12-18T05:53:42.145Z,80.50
2018-12-18T05:56:09.580Z,80.70
2018-12-18T05:58:37.153Z,80.50
2018-12-18T06:01:04.584Z,80.90
2018-12-18T06:03:32.053Z,80.80
2018-12-18T06:05:59.498Z,80.70
2018-12-18T06:08:26.980Z,80.70
2018-12-18T06:10:54.418Z,80.90
2018-12-18T06:13:21.890Z,81.00
2018-12-18T06:15:49.437Z,80.70
2018-12-18T06:18:16.902Z,80.80
2018-12-18T06:20:44.392Z,80.90
2018-12-18T06:23:11.827Z,80.90
2018-12-18T06:25:39.326Z,81.00
2018-12-18T06:28:06.784Z,81.00
2018-12-18T06:30:34.278Z,80.90
2018-12-18T06:33:01.725Z,80.90
2018-12-18T06:35:29.208Z,80.70
2018-12-18T06:37:56.676Z,80.80
2018-12-18T06:40:24.179Z,80.70
2018-12-18T06:42:53.275Z,80.60
2018-12-18T06:45:20.980Z,80.30
2018-12-18T06:47:48.534Z,80.10
2018-12-18T06:50:16.016Z,80.10
2018-12-18T06:52:43.600Z,80.10
2018-12-18T06:55:11.252Z,80.20
2018-12-18T06:57:38.767Z,80.20
2018-12-18T07:00:09.463Z,80.10
2018-12-18T07:02:36.921Z,80.20
2018-12-18T07:05:04.755Z,80.30
2018-12-18T07:07:32.202Z,80.20
2018-12-18T07:09:59.644Z,80.30
2018-12-18T07:12:27.124Z,80.30
2018-12-18T07:14:54.584Z,80.10
2018-12-18T07:17:22.117Z,80.10
2018-12-18T07:19:49.549Z,80.30
2018-12-18T07:22:17.024Z,80.00
2018-12-18T07:24:44.482Z,79.70
2018-12-18T07:27:11.920Z,79.30
2018-12-18T07:29:39.375Z,79.10
2018-12-18T07:32:06.878Z,79.20
2018-12-18T07:34:34.356Z,79.40
2018-12-18T07:37:01.998Z,79.30
2018-12-18T07:39:29.449Z,79.40
2018-12-18T07:41:56.909Z,79.20
2018-12-18T07:44:24.420Z,79.20
2018-12-18T07:46:51.974Z,79.20
2018-12-18T07:49:19.475Z,79.20
2018-12-18T07:51:47.025Z,79.10
2018-12-18T07:54:14.565Z,79.00
2018-12-18T07:56:42.088Z,79.00
2018-12-18T07:59:09.556Z,78.70
2018-12-18T08:01:37.046Z,78.30
2018-12-18T08:04:04.518Z,78.80
2018-12-18T08:06:31.997Z,78.90
2018-12-18T08:08:59.499Z,79.30
2018-12-18T08:11:27.006Z,79.20
2018-12-18T08:13:54.488Z,79.20
2018-12-18T08:16:21.957Z,79.20
2018-12-18T08:18:49.416Z,79.90
2018-12-18T08:21:16.869Z,78.90
2018-12-18T08:23:44.413Z,78.90
2018-12-18T08:26:11.931Z,78.60
2018-12-18T08:28:39.400Z,78.60
2018-12-18T08:31:06.876Z,78.20
2018-12-18T08:33:34.371Z,77.90
2018-12-18T08:36:01.848Z,77.80
2018-12-18T08:38:29.307Z,77.90
2018-12-18T08:40:56.755Z,77.70
2018-12-18T08:43:24.218Z,77.60
2018-12-18T08:45:51.765Z,77.30
2018-12-18T08:48:19.227Z,77.20
2018-12-18T08:50:46.703Z,76.90
2018-12-18T08:53:14.180Z,76.40
2018-12-18T08:55:42.238Z,76.30
2018-12-18T08:58:09.694Z,76.00
2018-12-18T09:00:37.186Z,76.10
2018-12-18T09:03:04.658Z,75.60
2018-12-18T09:05:32.171Z,75.50
2018-12-18T09:07:59.643Z,74.90
2018-12-18T09:10:27.144Z,74.90
2018-12-18T09:12:54.598Z,74.70
2018-12-18T09:15:27.766Z,74.20
2018-12-18T09:17:55.243Z,73.70
2018-12-18T09:20:22.890Z,73.00
2018-12-18T09:22:50.380Z,72.30
2018-12-18T09:25:17.847Z,71.60
2018-12-18T09:27:45.307Z,71.40
2018-12-18T09:30:12.786Z,70.30
2018-12-18T09:32:40.259Z,70.00
2018-12-18T09:35:07.749Z,68.90
2018-12-18T09:37:35.232Z,67.80
2018-12-18T09:40:03.073Z,66.90
2018-12-18T09:42:36.200Z,66.60
2018-12-18T09:45:04.401Z,66.50
2018-12-18T09:47:31.896Z,66.00
2018-12-18T09:49:59.365Z,65.70
2018-12-18T09:52:26.911Z,65.50
2018-12-18T09:54:54.373Z,65.30
2018-12-18T09:57:27.544Z,64.10
2018-12-18T09:59:54.997Z,63.20
2018-12-18T10:02:22.452Z,62.40
2018-12-18T10:04:49.904Z,62.50
2018-12-18T10:07:17.412Z,60.50
2018-12-18T10:09:44.871Z,59.70
2018-12-18T10:12:12.338Z,59.90
2018-12-18T10:14:40.042Z,59.90
2018-12-18T10:17:07.518Z,60.00
2018-12-18T10:19:34.984Z,59.30
2018-12-18T10:22:02.518Z,59.10
2018-12-18T10:24:30.004Z,59.10
2018-12-18T10:26:57.487Z,58.80
2018-12-18T10:29:24.968Z,58.70
2018-12-18T10:31:52.545Z,58.50
2018-12-18T10:34:20.000Z,58.10
2018-12-18T10:36:47.472Z,58.30
2018-12-18T10:39:14.937Z,58.00
2018-12-18T10:41:42.392Z,58.00
2018-12-18T10:44:09.914Z,58.20
2018-12-18T10:46:37.415Z,58.40
2018-12-18T10:49:04.921Z,58.40
2018-12-18T10:51:32.434Z,58.70
2018-12-18T10:53:59.990Z,58.70
2018-12-18T10:56:27.456Z,58.80
2018-12-18T10:58:54.909Z,59.30
2018-12-18T11:04:23.372Z,59.40
2018-12-18T11:06:50.916Z,60.10
2018-12-18T11:09:18.392Z,60.10
2018-12-18T11:11:46.560Z,61.70
2018-12-18T11:14:14.012Z,62.10
2018-12-18T11:16:41.500Z,62.50
2018-12-18T11:19:08.950Z,62.80
2018-12-18T11:21:36.412Z,62.80
2018-12-18T11:24:03.871Z,63.90
2018-12-18T11:26:31.433Z,62.90
2018-12-18T11:28:58.905Z,63.50
2018-12-18T11:31:26.376Z,64.30
2018-12-18T11:33:53.881Z,64.80
2018-12-18T11:36:21.446Z,64.90
2018-12-18T11:38:48.897Z,64.90
2018-12-18T11:41:16.362Z,65.00
2018-12-18T11:43:43.850Z,65.10
2018-12-18T11:46:11.322Z,64.80
2018-12-18T11:48:38.773Z,64.60
2018-12-18T11:51:06.224Z,64.50
2018-12-18T11:53:33.716Z,64.60
2018-12-18T11:56:01.144Z,64.30
2018-12-18T11:58:28.642Z,65.10
2018-12-18T12:00:56.099Z,63.90
2018-12-18T12:03:23.613Z,62.30
2018-12-18T12:05:51.071Z,61.70
2018-12-18T12:08:18.564Z,60.90
2018-12-18T12:10:46.061Z,60.40
2018-12-18T12:13:13.516Z,60.10
2018-12-18T12:15:40.975Z,60.10
2018-12-18T12:18:08.474Z,60.50
2018-12-18T12:20:35.938Z,59.20
2018-12-18T12:23:03.428Z,59.00
2018-12-18T12:25:30.913Z,58.30
2018-12-18T12:28:04.191Z,57.80
2018-12-18T12:30:31.648Z,58.20
2018-12-18T12:32:59.129Z,57.20
2018-12-18T12:35:26.569Z,57.30
2018-12-18T12:37:54.055Z,56.90
2018-12-18T12:40:21.526Z,56.50
2018-12-18T12:42:48.985Z,55.60
2018-12-18T12:45:16.453Z,55.50
2018-12-18T12:47:45.912Z,55.90
2018-12-18T12:50:13.697Z,56.00
2018-12-18T12:52:41.212Z,55.70
2018-12-18T12:55:08.667Z,55.50
2018-12-18T12:57:36.132Z,55.60
2018-12-18T13:00:03.971Z,55.90
2018-12-18T13:02:31.434Z,56.10
2018-12-18T13:04:58.902Z,56.30
2018-12-18T13:07:26.344Z,56.60
2018-12-18T13:09:53.832Z,56.60
2018-12-18T13:12:21.259Z,56.80
2018-12-18T13:14:49.571Z,57.00
2018-12-18T13:17:17.129Z,57.50
2018-12-18T13:19:44.569Z,57.70
2018-12-18T13:22:12.035Z,57.70
2018-12-18T13:24:39.492Z,57.70
2018-12-18T13:27:06.985Z,57.60
2018-12-18T13:29:34.956Z,57.40
2018-12-18T13:32:02.453Z,57.50
2018-12-18T13:34:29.895Z,57.10
2018-12-18T13:36:57.371Z,57.30
2018-12-18T13:39:24.824Z,58.00
2018-12-18T13:41:52.304Z,57.50
2018-12-18T13:44:19.741Z,57.40
2018-12-18T13:46:47.207Z,57.20
2018-12-18T13:49:14.689Z,56.90
2018-12-18T13:51:42.190Z,56.90
2018-12-18T13:54:09.758Z,56.80
2018-12-18T13:56:37.223Z,56.70
2018-12-18T13:59:04.673Z,56.70
2018-12-18T14:01:32.379Z,56.90
2018-12-18T14:03:59.824Z,57.50
2018-12-18T14:06:27.305Z,57.20
2018-12-18T14:08:54.757Z,57.00
2018-12-18T14:11:22.229Z,57.10
2018-12-18T14:13:49.713Z,57.10
2018-12-18T14:16:17.161Z,57.00
2018-12-18T14:18:44.645Z,57.40
2018-12-18T14:21:12.125Z,57.10
2018-12-18T14:23:39.564Z,57.10
2018-12-18T14:26:07.149Z,56.30
2018-12-18T14:28:35.471Z,56.40
2018-12-18T14:31:02.928Z,56.70
2018-12-18T14:33:30.391Z,57.00
2018-12-18T14:35:57.844Z,57.50
2018-12-18T14:38:25.296Z,57.20
2018-12-18T14:40:52.731Z,57.30
2018-12-18T14:43:20.216Z,57.60
2018-12-18T14:45:47.683Z,57.80
2018-12-18T14:48:15.168Z,58.10
2018-12-18T14:50:42.681Z,58.40
2018-12-18T14:53:10.145Z,58.10
2018-12-18T14:55:37.602Z,58.70
2018-12-18T14:58:05.060Z,58.80
2018-12-18T15:00:32.559Z,58.80
2018-12-18T15:03:00.009Z,59.20
2018-12-18T15:05:27.465Z,59.50
2018-12-18T15:07:54.922Z,59.70
2018-12-18T15:10:22.480Z,59.90
2018-12-18T15:12:49.957Z,59.70
2018-12-18T15:15:17.512Z,60.00
2018-12-18T15:17:45.052Z,60.30
2018-12-18T15:20:12.705Z,61.80
2018-12-18T15:22:40.166Z,62.00
2018-12-18T15:25:07.695Z,62.10
2018-12-18T15:27:35.173Z,62.30
2018-12-18T15:30:02.729Z,62.50
2018-12-18T15:32:30.512Z,63.10
2018-12-18T15:34:58.107Z,62.80
2018-12-18T15:37:25.556Z,63.10
2018-12-18T15:39:53.008Z,63.20
2018-12-18T15:42:20.481Z,63.40
2018-12-18T15:44:47.945Z,63.60
2018-12-18T15:47:15.446Z,63.70
2018-12-18T15:49:42.902Z,63.90
2018-12-18T15:52:10.353Z,64.30
2018-12-18T15:54:37.816Z,64.90
2018-12-18T15:57:05.323Z,65.10
2018-12-18T15:59:32.823Z,65.50
2018-12-18T16:02:00.279Z,65.90
2018-12-18T16:04:27.727Z,66.10
2018-12-18T16:06:55.203Z,66.20
2018-12-18T16:09:22.747Z,66.20
2018-12-18T16:11:50.206Z,66.20
2018-12-18T16:14:17.681Z,66.00
2018-12-18T16:16:45.411Z,65.80
2018-12-18T16:19:12.928Z,65.80
2018-12-18T16:21:40.479Z,65.70
2018-12-18T16:24:07.936Z,65.80
2018-12-18T16:26:35.429Z,65.90
2018-12-18T16:29:03.062Z,65.80
2018-12-18T16:31:30.548Z,65.80
2018-12-18T16:33:58.021Z,65.50
2018-12-18T16:36:25.518Z,64.80
2018-12-18T16:38:53.025Z,64.80
2018-12-18T16:41:20.465Z,64.30
2018-12-18T16:43:48.039Z,64.70
2018-12-18T16:46:15.487Z,64.90
2018-12-18T16:48:42.967Z,65.20
2018-12-18T16:51:10.433Z,65.00
2018-12-18T16:53:37.910Z,65.00
2018-12-18T16:56:05.507Z,64.80
2018-12-18T16:58:32.989Z,64.50
2018-12-18T17:01:00.437Z,64.20
2018-12-18T17:03:27.893Z,63.40
2018-12-18T17:05:55.349Z,64.00
2018-12-18T17:08:22.821Z,63.70
2018-12-18T17:10:50.392Z,63.80
2018-12-18T17:13:17.864Z,64.20
2018-12-18T17:15:45.331Z,64.60
2018-12-18T17:18:12.777Z,64.70
2018-12-18T17:20:40.238Z,64.70
2018-12-18T17:23:07.700Z,64.40
2018-12-18T17:25:35.202Z,64.40
2018-12-18T17:28:02.693Z,64.40
2018-12-18T17:30:30.159Z,64.30
2018-12-18T17:32:57.603Z,64.00
2018-12-18T17:35:25.110Z,64.50
2018-12-18T17:37:52.952Z,64.90
2018-12-18T17:40:20.400Z,65.90
2018-12-18T17:42:47.884Z,65.00
2018-12-18T17:45:16.166Z,65.10
2018-12-18T17:47:43.628Z,65.30
2018-12-18T17:50:11.190Z,65.40
2018-12-18T17:52:38.975Z,65.40
2018-12-18T17:55:06.188Z,65.50
2018-12-18T17:57:33.212Z,65.70
2018-12-18T18:00:00.235Z,66.20
2018-12-18T18:02:27.288Z,66.80
2018-12-18T18:04:54.488Z,67.10
2018-12-18T18:07:21.538Z,67.60
2018-12-18T18:09:48.544Z,68.00
2018-12-18T18:12:16.030Z,68.40
2018-12-18T18:14:43.471Z,68.60
2018-12-18T18:17:10.998Z,68.40
2018-12-18T18:19:38.440Z,68.10
2018-12-18T18:22:05.925Z,67.90
2018-12-18T18:24:33.399Z,67.80
2018-12-18T18:27:00.959Z,67.60
2018-12-18T18:29:28.399Z,67.50
2018-12-18T18:31:55.882Z,67.60
2018-12-18T18:34:23.348Z,67.70
2018-12-18T18:36:50.822Z,67.90
2018-12-18T18:39:18.304Z,67.90
2018-12-18T18:41:46.361Z,68.10
2018-12-18T18:44:13.863Z,67.90
2018-12-18T18:46:41.356Z,68.30
2018-12-18T18:49:08.863Z,68.70
2018-12-18T18:51:36.346Z,68.70
2018-12-18T18:54:04.044Z,68.60
2018-12-18T18:56:31.529Z,68.50
2018-12-18T18:58:59.050Z,68.40
2018-12-18T19:01:26.681Z,68.10
2018-12-18T19:03:54.271Z,67.70
2018-12-18T19:06:21.785Z,67.40
2018-12-18T19:08:49.362Z,67.40
2018-12-18T19:11:16.874Z,67.50
2018-12-18T19:13:44.336Z,67.70
2018-12-18T19:16:11.905Z,67.90
2018-12-18T19:18:39.421Z,67.90
2018-12-18T19:21:06.914Z,67.60
2018-12-18T19:23:34.454Z,67.90
2018-12-18T19:26:02.014Z,67.90
2018-12-18T19:28:29.479Z,67.80
2018-12-18T19:30:56.981Z,67.90
2018-12-18T19:33:24.461Z,68.00
2018-12-18T19:35:51.988Z,67.70
2018-12-18T19:38:19.464Z,67.60
2018-12-18T19:40:47.001Z,68.60
2018-12-18T19:43:14.515Z,67.90
2018-12-18T19:45:42.178Z,69.30
2018-12-18T19:48:09.691Z,68.30
2018-12-18T19:50:37.202Z,68.00
2018-12-18T19:53:04.720Z,68.10
2018-12-18T19:55:32.242Z,68.20
2018-12-18T19:57:59.863Z,68.40
2018-12-18T20:00:27.618Z,68.80
2018-12-18T20:02:55.233Z,69.00
2018-12-18T20:05:22.808Z,69.10
2018-12-18T20:07:50.424Z,69.30
2018-12-18T20:10:17.993Z,69.70
2018-12-18T20:12:46.081Z,69.90
2018-12-18T20:15:13.657Z,69.70
2018-12-18T20:17:41.175Z,69.60
2018-12-18T20:20:08.931Z,69.20
2018-12-18T20:22:36.455Z,69.20
2018-12-18T20:25:05.295Z,69.20
2018-12-18T20:27:32.772Z,69.20
2018-12-18T20:30:00.392Z,69.30
2018-12-18T20:32:27.846Z,69.40
2018-12-18T20:34:55.346Z,69.40
2018-12-18T20:37:23.026Z,69.40
2018-12-18T20:39:50.512Z,69.70
2018-12-18T20:42:17.991Z,69.60
2018-12-18T20:44:45.468Z,69.40
2018-12-18T20:47:12.946Z,69.40
2018-12-18T20:49:40.931Z,69.80
2018-12-18T20:52:08.647Z,69.90
2018-12-18T20:54:36.163Z,69.70
2018-12-18T20:57:03.706Z,69.50
2018-12-18T20:59:31.165Z,69.60
2018-12-18T21:01:58.187Z,69.40
2018-12-18T21:04:25.377Z,69.70
2018-12-18T21:06:52.395Z,69.90
2018-12-18T21:09:19.465Z,70.20
2018-12-18T21:11:46.460Z,70.80
2018-12-18T21:14:13.515Z,71.10
2018-12-18T21:16:40.600Z,71.60
2018-12-18T21:19:07.612Z,72.00
2018-12-18T21:21:34.667Z,72.20
2018-12-18T21:24:01.715Z,72.50
2018-12-18T21:26:28.743Z,72.40
2018-12-18T21:28:55.757Z,72.30
2018-12-18T21:31:22.752Z,72.20
2018-12-18T21:33:49.780Z,72.80
2018-12-18T21:36:16.825Z,73.00
2018-12-18T21:38:43.833Z,72.90
2018-12-18T21:41:10.863Z,73.00
2018-12-18T21:43:37.890Z,73.30
2018-12-18T21:46:04.956Z,73.30
2018-12-18T21:48:32.096Z,73.40
2018-12-18T21:50:59.128Z,73.20
2018-12-18T21:53:26.266Z,73.20
2018-12-18T21:55:53.705Z,73.30
2018-12-18T21:58:21.243Z,73.70
2018-12-18T22:00:48.692Z,73.50
2018-12-18T22:03:16.198Z,73.80
2018-12-18T22:05:43.676Z,73.90
2018-12-18T22:08:11.161Z,73.80
2018-12-18T22:10:38.649Z,73.90
2018-12-18T22:13:06.107Z,74.10
2018-12-18T22:15:33.588Z,74.20
2018-12-18T22:18:01.049Z,74.40
2018-12-18T22:20:28.530Z,74.80
2018-12-18T22:22:56.003Z,74.80
2018-12-18T22:25:23.474Z,74.60
2018-12-18T22:27:51.577Z,74.90
2018-12-18T22:30:19.302Z,74.40
2018-12-18T22:32:46.769Z,74.50
2018-12-18T22:35:14.233Z,74.40
2018-12-18T22:37:41.719Z,74.40
2018-12-18T22:40:09.205Z,74.50
2018-12-18T22:42:36.698Z,74.40
2018-12-18T22:45:04.600Z,74.20
2018-12-18T22:47:32.144Z,74.20
2018-12-18T22:49:59.595Z,74.20
2018-12-18T22:52:27.120Z,74.10
2018-12-18T22:54:54.569Z,74.10
2018-12-18T22:57:22.053Z,74.10
2018-12-18T22:59:49.557Z,73.90
2018-12-18T23:02:17.074Z,74.30
2018-12-18T23:04:44.521Z,74.40
2018-12-18T23:07:11.987Z,74.10
2018-12-18T23:09:39.475Z,74.00
2018-12-18T23:12:07.021Z,73.80
2018-12-18T23:14:34.564Z,74.20
2018-12-18T23:17:02.015Z,74.00
2018-12-18T23:19:29.477Z,73.80
2018-12-18T23:21:56.972Z,74.30
2018-12-18T23:24:24.454Z,74.40
2018-12-18T23:26:51.892Z,74.60
2018-12-18T23:29:19.378Z,74.50
2018-12-18T23:31:46.848Z,74.40
2018-12-18T23:34:14.292Z,75.00
2018-12-18T23:36:41.783Z,73.90
2018-12-18T23:39:09.257Z,73.70
2018-12-18T23:41:36.860Z,73.60
2018-12-18T23:44:04.445Z,73.60
2018-12-18T23:46:31.936Z,73.50
2018-12-18T23:48:59.405Z,73.40
2018-12-18T23:51:26.872Z,73.40
2018-12-18T23:53:54.347Z,73.50
2018-12-18T23:56:21.810Z,73.40
2018-12-18T23:58:49.293Z,73.10
